createdAt,value
2018-10-06T00:00:40.373Z,3.53
2018-10-06T00:03:08.405Z,3.47
2018-10-06T00:05:36.410Z,3.30
2018-10-06T00:08:04.404Z,4.20
2018-10-06T00:10:32.434Z,3.80
2018-10-06T00:13:00.449Z,4.57
2018-10-06T00:15:28.467Z,4.10
2018-10-06T00:17:56.478Z,3.57
2018-10-06T00:20:24.511Z,4.80
2018-10-06T00:22:52.568Z,4.00
2018-10-06T00:25:21.598Z,3.93
2018-10-06T00:27:49.624Z,3.87
2018-10-06T00:30:17.667Z,4.07
2018-10-06T00:32:45.701Z,3.30
2018-10-06T00:35:13.697Z,3.80
2018-10-06T00:37:41.723Z,3.90
2018-10-06T00:40:09.725Z,4.30
2018-10-06T00:42:37.725Z,3.47
2018-10-06T00:45:05.826Z,4.20
2018-10-06T00:47:33.844Z,4.03
2018-10-06T00:50:01.872Z,3.70
2018-10-06T00:52:29.901Z,4.03
2018-10-06T00:54:57.940Z,3.60
2018-10-06T00:57:25.941Z,3.80
2018-10-06T00:59:53.967Z,4.10
2018-10-06T01:02:21.965Z,4.17
2018-10-06T01:04:51.000Z,2.87
2018-10-06T01:07:19.008Z,4.00
2018-10-06T01:09:47.037Z,3.67
2018-10-06T01:12:15.041Z,4.13
2018-10-06T01:31:21.793Z,4.57
2018-10-06T01:33:49.801Z,4.30
2018-10-06T01:36:17.849Z,4.13
2018-10-06T01:38:45.946Z,4.07
2018-10-06T01:41:14.229Z,3.73
2018-10-06T01:43:42.233Z,3.20
2018-10-06T01:46:10.678Z,4.67
2018-10-06T01:48:38.697Z,4.17
2018-10-06T01:51:06.729Z,4.10
2018-10-06T01:53:34.730Z,4.40
2018-10-06T01:56:03.058Z,4.33
2018-10-06T01:58:31.118Z,3.90
2018-10-06T02:00:59.145Z,3.87
2018-10-06T02:03:27.210Z,3.70
2018-10-06T02:05:55.203Z,3.80
2018-10-06T02:08:23.261Z,3.37
2018-10-06T02:10:51.263Z,4.10
2018-10-06T02:13:19.281Z,3.90
2018-10-06T02:15:47.335Z,4.60
2018-10-06T02:18:16.357Z,4.10
2018-10-06T02:20:44.365Z,4.07
2018-10-06T02:23:12.384Z,3.70
2018-10-06T02:25:40.364Z,4.00
2018-10-06T02:28:08.390Z,4.10
2018-10-06T02:30:36.398Z,6.03
2018-10-06T02:33:04.417Z,3.50
2018-10-06T02:35:32.431Z,4.07
2018-10-06T02:38:00.453Z,4.63
2018-10-06T02:40:28.473Z,3.50
2018-10-06T02:42:56.488Z,3.83
2018-10-06T02:45:24.505Z,4.10
2018-10-06T02:47:52.537Z,3.40
2018-10-06T02:50:20.570Z,3.40
2018-10-06T02:52:48.573Z,3.93
2018-10-06T02:55:17.650Z,3.53
2018-10-06T02:57:45.729Z,3.60
2018-10-06T03:00:13.759Z,3.80
2018-10-06T03:02:42.774Z,3.73
2018-10-06T03:05:10.802Z,4.10
2018-10-06T03:07:38.829Z,3.77
2018-10-06T03:10:06.851Z,3.43
2018-10-06T03:12:35.887Z,3.47
2018-10-06T03:15:03.922Z,4.03
2018-10-06T03:17:31.950Z,4.20
2018-10-06T03:19:59.969Z,3.70
2018-10-06T03:22:28.033Z,3.90
2018-10-06T03:24:56.045Z,3.77
2018-10-06T03:27:24.069Z,4.10
2018-10-06T03:29:52.089Z,4.00
2018-10-06T03:32:20.117Z,3.60
2018-10-06T03:34:48.130Z,4.07
2018-10-06T03:37:16.163Z,3.20
2018-10-06T03:39:44.160Z,3.83
2018-10-06T03:42:12.296Z,3.80
2018-10-06T03:44:40.291Z,3.03
2018-10-06T03:47:08.320Z,3.40
2018-10-06T03:49:36.322Z,3.43
2018-10-06T03:52:04.329Z,3.60
2018-10-06T03:54:32.321Z,3.43
2018-10-06T03:57:00.346Z,3.50
2018-10-06T03:59:28.357Z,3.60
2018-10-06T04:01:56.382Z,3.27
2018-10-06T04:04:24.381Z,4.27
2018-10-06T04:06:58.821Z,3.37
2018-10-06T04:09:26.829Z,2.93
2018-10-06T04:11:54.850Z,3.37
2018-10-06T04:14:22.843Z,3.10
2018-10-06T04:16:50.855Z,4.00
2018-10-06T04:19:19.900Z,4.30
2018-10-06T04:21:48.494Z,3.80
2018-10-06T04:24:17.621Z,4.00
2018-10-06T04:26:45.617Z,3.23
2018-10-06T04:29:13.645Z,3.80
2018-10-06T04:31:41.642Z,3.60
2018-10-06T04:34:10.105Z,3.80
2018-10-06T04:36:38.345Z,3.57
2018-10-06T04:39:07.890Z,3.83
2018-10-06T04:41:36.914Z,2.90
2018-10-06T04:44:04.946Z,3.40
2018-10-06T04:46:33.301Z,3.70
2018-10-06T04:49:01.320Z,3.10
2018-10-06T04:51:29.334Z,3.50
2018-10-06T04:53:57.334Z,4.60
2018-10-06T04:56:25.356Z,3.33
2018-10-06T04:58:53.658Z,3.97
2018-10-06T05:01:21.660Z,3.30
2018-10-06T05:03:49.696Z,3.57
2018-10-06T05:06:17.681Z,4.13
2018-10-06T05:08:45.705Z,3.70
2018-10-06T05:11:13.709Z,3.27
2018-10-06T05:13:41.731Z,3.93
2018-10-06T05:16:09.742Z,3.70
2018-10-06T05:18:37.788Z,3.83
2018-10-06T05:21:06.852Z,3.93
2018-10-06T05:23:34.984Z,3.40
2018-10-06T05:26:02.899Z,3.63
2018-10-06T05:28:30.921Z,3.83
2018-10-06T05:30:58.945Z,3.47
2018-10-06T05:33:26.969Z,3.50
2018-10-06T05:35:54.981Z,3.40
2018-10-06T05:38:23.010Z,3.50
2018-10-06T05:40:51.044Z,3.70
2018-10-06T05:43:19.059Z,3.63
2018-10-06T05:45:47.056Z,3.40
2018-10-06T05:48:15.077Z,3.50
2018-10-06T05:50:43.077Z,3.67
2018-10-06T05:53:12.129Z,4.03
2018-10-06T05:55:40.134Z,4.07
2018-10-06T05:58:08.184Z,3.80
2018-10-06T06:00:36.177Z,3.80
2018-10-06T06:03:04.204Z,3.47
2018-10-06T06:05:33.236Z,3.40
2018-10-06T06:08:01.249Z,3.50
2018-10-06T06:10:29.253Z,3.10
2018-10-06T06:12:57.302Z,3.40
2018-10-06T06:15:25.322Z,4.23
2018-10-06T06:17:53.345Z,4.20
2018-10-06T06:20:21.377Z,3.70
2018-10-06T06:22:49.391Z,3.77
2018-10-06T06:25:17.389Z,3.57
2018-10-06T06:27:45.414Z,3.10
2018-10-06T06:30:13.434Z,4.10
2018-10-06T06:32:41.463Z,3.27
2018-10-06T06:35:09.471Z,3.30
2018-10-06T06:37:37.559Z,3.90
2018-10-06T06:40:05.797Z,3.67
2018-10-06T06:42:33.797Z,3.60
2018-10-06T06:45:01.825Z,3.47
2018-10-06T06:47:30.890Z,3.20
2018-10-06T06:49:58.946Z,4.07
2018-10-06T06:52:26.974Z,3.40
2018-10-06T06:54:55.039Z,4.07
2018-10-06T06:57:22.991Z,4.60
2018-10-06T06:59:51.019Z,3.90
2018-10-06T07:02:19.022Z,4.50
2018-10-06T07:04:47.051Z,3.13
2018-10-06T07:07:15.045Z,3.47
2018-10-06T07:09:43.053Z,4.07
2018-10-06T07:12:11.050Z,3.30
2018-10-06T07:14:39.097Z,3.80
2018-10-06T07:17:07.109Z,3.90
2018-10-06T07:19:35.142Z,3.70
2018-10-06T07:22:03.167Z,4.20
2018-10-06T07:24:31.709Z,4.10
2018-10-06T07:26:59.757Z,3.17
2018-10-06T07:29:27.744Z,3.77
2018-10-06T07:31:55.731Z,4.10
2018-10-06T07:34:23.758Z,3.93
2018-10-06T07:36:51.853Z,3.30
2018-10-06T07:39:20.430Z,3.60
2018-10-06T07:41:49.351Z,4.07
2018-10-06T07:44:17.715Z,3.30
2018-10-06T07:46:45.977Z,3.70
2018-10-06T07:49:14.560Z,3.87
2018-10-06T07:51:43.007Z,3.60
2018-10-06T07:54:12.484Z,3.60
2018-10-06T07:56:41.113Z,3.50
2018-10-06T07:59:09.652Z,3.40
2018-10-06T08:01:38.031Z,3.57
2018-10-06T08:04:06.071Z,3.60
2018-10-06T08:06:34.201Z,8.03
2018-10-06T08:09:02.117Z,14.67
2018-10-06T08:11:30.116Z,14.10
2018-10-06T08:13:58.154Z,15.37
2018-10-06T08:16:26.211Z,18.27
2018-10-06T08:18:54.225Z,21.63
2018-10-06T08:21:22.250Z,19.87
2018-10-06T08:23:50.289Z,23.47
2018-10-06T08:26:18.604Z,22.73
2018-10-06T08:28:46.626Z,21.03
2018-10-06T08:31:14.635Z,19.70
2018-10-06T08:33:42.645Z,20.30
2018-10-06T08:36:10.654Z,21.93
2018-10-06T08:38:38.663Z,20.57
2018-10-06T08:41:06.689Z,19.90
2018-10-06T08:43:34.709Z,20.07
2018-10-06T08:46:02.724Z,17.77
2018-10-06T08:48:31.887Z,19.77
2018-10-06T08:50:59.872Z,19.10
2018-10-06T08:53:27.880Z,19.20
2018-10-06T08:55:55.911Z,17.47
2018-10-06T08:58:23.913Z,18.97
2018-10-06T09:00:52.968Z,18.37
2018-10-06T09:03:20.997Z,17.23
2018-10-06T09:05:49.030Z,16.00
2018-10-06T09:08:17.076Z,15.23
2018-10-06T09:10:45.093Z,14.80
2018-10-06T09:13:13.212Z,15.87
2018-10-06T09:15:41.230Z,15.13
2018-10-06T09:18:09.261Z,13.90
2018-10-06T09:20:37.266Z,15.80
2018-10-06T09:23:05.311Z,13.63
2018-10-06T09:25:33.323Z,13.70
2018-10-06T09:28:01.341Z,13.27
2018-10-06T09:30:29.737Z,12.83
2018-10-06T09:32:57.765Z,10.93
2018-10-06T09:35:25.744Z,11.27
2018-10-06T09:37:53.789Z,11.80
2018-10-06T09:40:21.801Z,10.83
2018-10-06T09:42:49.948Z,10.10
2018-10-06T09:45:17.871Z,11.73
2018-10-06T09:47:45.862Z,10.30
2018-10-06T09:50:13.920Z,11.77
2018-10-06T09:52:41.925Z,11.20
2018-10-06T09:55:09.965Z,10.50
2018-10-06T09:57:37.981Z,9.73
2018-10-06T10:00:06.561Z,10.00
2018-10-06T10:02:39.998Z,9.57
2018-10-06T10:05:13.925Z,9.37
2018-10-06T10:07:41.911Z,8.83
2018-10-06T10:10:10.989Z,9.37
2018-10-06T10:12:39.028Z,9.67
2018-10-06T10:15:07.008Z,9.50
2018-10-06T10:17:35.167Z,8.37
2018-10-06T10:20:03.070Z,9.60
2018-10-06T10:22:32.115Z,8.47
2018-10-06T10:25:00.109Z,9.43
2018-10-06T10:27:28.182Z,8.50
2018-10-06T10:29:56.192Z,8.13
2018-10-06T10:32:24.202Z,9.53
2018-10-06T10:34:52.234Z,8.60
2018-10-06T10:37:20.284Z,8.43
2018-10-06T10:39:48.412Z,8.83
2018-10-06T10:42:16.326Z,8.03
2018-10-06T10:44:44.401Z,7.07
2018-10-06T10:47:12.417Z,8.20
2018-10-06T10:49:40.448Z,7.70
2018-10-06T10:52:08.438Z,7.77
2018-10-06T10:54:36.542Z,7.97
2018-10-06T10:57:04.496Z,7.90
2018-10-06T10:59:32.680Z,7.97
2018-10-06T11:02:00.581Z,7.73
2018-10-06T11:04:28.622Z,7.00
2018-10-06T11:06:56.633Z,7.10
2018-10-06T11:09:24.650Z,6.77
2018-10-06T11:11:52.637Z,7.60
2018-10-06T11:14:20.665Z,7.30
2018-10-06T11:16:48.670Z,7.20
2018-10-06T11:19:16.689Z,6.50
2018-10-06T11:21:44.748Z,6.80
2018-10-06T11:24:13.785Z,6.30
2018-10-06T11:26:41.909Z,6.30
2018-10-06T11:29:09.943Z,6.73
2018-10-06T11:31:37.948Z,6.47
2018-10-06T11:34:05.978Z,7.00
2018-10-06T11:36:35.093Z,6.10
2018-10-06T11:39:06.011Z,6.60
2018-10-06T11:41:34.030Z,6.43
2018-10-06T11:44:02.075Z,6.23
2018-10-06T11:46:30.194Z,5.57
2018-10-06T11:48:58.369Z,6.90
2018-10-06T11:51:26.438Z,6.50
2018-10-06T11:53:54.555Z,6.60
2018-10-06T11:56:22.583Z,7.00
2018-10-06T11:58:50.594Z,5.90
2018-10-06T12:01:18.602Z,6.17
2018-10-06T12:03:46.633Z,5.67
2018-10-06T12:06:14.727Z,7.33
2018-10-06T12:08:42.750Z,6.80
2018-10-06T12:11:10.809Z,6.00
2018-10-06T12:13:38.834Z,6.40
2018-10-06T12:16:06.930Z,5.70
2018-10-06T12:18:34.948Z,5.83
2018-10-06T12:21:02.957Z,6.30
2018-10-06T12:23:30.978Z,6.30
2018-10-06T12:25:59.084Z,5.40
2018-10-06T12:28:27.078Z,5.47
2018-10-06T12:30:55.130Z,5.77
2018-10-06T12:33:23.158Z,6.10
2018-10-06T12:35:52.173Z,5.80
2018-10-06T12:38:20.209Z,5.90
2018-10-06T12:40:48.226Z,5.47
2018-10-06T12:43:16.240Z,5.63
2018-10-06T12:45:45.233Z,5.10
2018-10-06T12:48:14.272Z,5.30
2018-10-06T12:50:42.274Z,5.60
2018-10-06T12:53:10.277Z,4.97
2018-10-06T12:55:38.287Z,6.03
2018-10-06T12:58:06.301Z,5.57
2018-10-06T13:00:34.326Z,5.00
2018-10-06T13:03:02.337Z,5.40
2018-10-06T13:05:30.348Z,4.80
2018-10-06T13:07:58.390Z,4.97
2018-10-06T13:10:26.402Z,4.97
2018-10-06T13:12:54.413Z,5.50
2018-10-06T13:15:22.413Z,5.43
2018-10-06T13:17:50.436Z,5.17
2018-10-06T13:20:18.417Z,4.23
2018-10-06T13:22:46.438Z,4.63
2018-10-06T13:25:14.447Z,5.40
2018-10-06T13:27:42.461Z,5.83
2018-10-06T13:30:10.449Z,4.87
2018-10-06T13:32:38.476Z,5.10
2018-10-06T13:35:06.474Z,5.27
2018-10-06T13:37:34.501Z,4.90
2018-10-06T13:40:02.512Z,5.10
2018-10-06T13:42:30.527Z,5.40
2018-10-06T13:44:58.525Z,3.93
2018-10-06T13:47:26.567Z,5.00
2018-10-06T13:49:54.569Z,5.33
2018-10-06T13:52:22.603Z,5.20
2018-10-06T13:54:50.601Z,4.87
2018-10-06T13:57:18.644Z,4.33
2018-10-06T13:59:46.641Z,4.20
2018-10-06T14:02:14.670Z,4.93
2018-10-06T14:04:42.668Z,4.67
2018-10-06T14:07:10.718Z,4.50
2018-10-06T14:09:38.726Z,4.67
2018-10-06T14:12:06.890Z,4.70
2018-10-06T14:17:09.561Z,4.93
2018-10-06T14:19:37.577Z,4.93
2018-10-06T14:22:05.620Z,4.70
2018-10-06T14:24:33.613Z,5.13
2018-10-06T14:27:01.694Z,3.90
2018-10-06T14:29:30.693Z,4.40
2018-10-06T14:31:59.550Z,4.30
2018-10-06T14:34:27.790Z,3.90
2018-10-06T14:36:55.826Z,5.27
2018-10-06T14:39:23.828Z,4.10
2018-10-06T14:41:51.864Z,3.80
2018-10-06T14:44:19.929Z,4.67
2018-10-06T14:46:47.889Z,4.50
2018-10-06T14:49:15.882Z,4.57
2018-10-06T15:08:24.239Z,5.10
2018-10-06T15:10:52.252Z,4.60
2018-10-06T15:13:20.693Z,4.03
2018-10-06T15:15:48.730Z,4.23
2018-10-06T15:18:16.718Z,3.87
2018-10-06T15:20:44.722Z,3.37
2018-10-06T15:23:12.821Z,4.03
2018-10-06T15:25:40.962Z,4.30
2018-10-06T15:28:09.040Z,4.57
2018-10-06T15:30:37.347Z,3.90
2018-10-06T15:33:05.333Z,4.37
2018-10-06T15:35:33.325Z,4.40
2018-10-06T15:38:01.357Z,4.47
2018-10-06T15:40:29.378Z,4.80
2018-10-06T15:42:58.525Z,3.87
2018-10-06T15:45:26.540Z,4.13
2018-10-06T15:47:55.572Z,4.00
2018-10-06T15:50:23.597Z,4.57
2018-10-06T15:52:51.677Z,4.27
2018-10-06T15:55:19.737Z,4.33
2018-10-06T15:57:47.762Z,3.67
2018-10-06T16:00:15.790Z,4.33
2018-10-06T16:02:43.840Z,3.57
2018-10-06T16:05:11.813Z,3.33
2018-10-06T16:07:39.840Z,4.00
2018-10-06T16:10:07.921Z,4.20
2018-10-06T16:12:35.933Z,3.97
2018-10-06T16:15:04.071Z,4.20
2018-10-06T16:17:32.154Z,3.90
2018-10-06T16:20:00.158Z,4.00
2018-10-06T16:22:28.194Z,3.80
2018-10-06T16:24:56.211Z,3.80
2018-10-06T16:27:24.301Z,3.60
2018-10-06T16:29:52.282Z,4.00
2018-10-06T16:32:20.306Z,4.67
2018-10-06T16:34:48.314Z,4.47
2018-10-06T16:37:16.346Z,3.80
2018-10-06T16:39:44.370Z,4.47
2018-10-06T16:42:12.398Z,3.70
2018-10-06T16:44:40.961Z,3.77
2018-10-06T16:47:09.491Z,4.27
2018-10-06T16:49:37.968Z,4.00
2018-10-06T16:52:07.650Z,3.77
2018-10-06T16:54:37.153Z,4.07
2018-10-06T16:57:06.931Z,3.43
2018-10-06T16:59:36.564Z,3.70
2018-10-06T17:02:05.368Z,3.77
2018-10-06T17:04:33.948Z,3.77
2018-10-06T17:07:02.589Z,3.10
2018-10-06T17:09:31.223Z,3.10
2018-10-06T17:11:59.779Z,3.60
2018-10-06T17:14:28.488Z,3.73
2018-10-06T17:16:57.130Z,3.43
2018-10-06T17:19:25.295Z,3.40
2018-10-06T17:21:53.335Z,3.10
2018-10-06T17:24:21.878Z,4.03
2018-10-06T17:26:51.294Z,3.70
2018-10-06T17:29:19.872Z,3.80
2018-10-06T17:31:48.558Z,3.77
2018-10-06T17:34:17.110Z,3.90
2018-10-06T17:36:45.597Z,3.40
2018-10-06T17:39:14.215Z,3.97
2018-10-06T17:41:42.296Z,4.30
2018-10-06T17:44:10.388Z,3.90
2018-10-06T17:46:38.389Z,3.00
2018-10-06T17:49:06.433Z,3.40
2018-10-06T17:51:35.463Z,3.73
2018-10-06T17:54:03.484Z,3.53
2018-10-06T17:56:31.493Z,3.77
2018-10-06T17:58:59.524Z,4.17
2018-10-06T18:01:27.569Z,3.23
2018-10-06T18:03:55.607Z,4.07
2018-10-06T18:06:23.617Z,3.87
2018-10-06T18:08:51.645Z,4.10
2018-10-06T18:11:19.711Z,4.40
2018-10-06T18:13:49.873Z,3.70
2018-10-06T18:16:22.104Z,3.60
2018-10-06T18:18:50.098Z,3.43
2018-10-06T18:21:18.298Z,3.93
2018-10-06T18:23:46.174Z,4.07
2018-10-06T18:26:14.235Z,3.30
2018-10-06T18:28:42.241Z,3.20
2018-10-06T18:31:10.257Z,3.50
2018-10-06T18:33:38.290Z,3.83
2018-10-06T18:36:07.339Z,3.67
2018-10-06T18:38:35.368Z,3.37
2018-10-06T18:41:03.410Z,3.03
2018-10-06T18:43:31.494Z,2.90
2018-10-06T18:45:59.457Z,3.70
2018-10-06T18:48:27.485Z,3.50
2018-10-06T18:50:55.481Z,3.50
2018-10-06T18:53:23.492Z,4.00
2018-10-06T18:55:51.525Z,3.97
2018-10-06T18:58:20.595Z,4.60
2018-10-06T19:00:48.613Z,3.93
2018-10-06T19:03:16.728Z,3.40
2018-10-06T19:05:44.665Z,3.70
2018-10-06T19:08:12.682Z,3.60
2018-10-06T19:10:40.705Z,3.83
2018-10-06T19:13:08.747Z,4.67
2018-10-06T19:15:36.810Z,3.93
2018-10-06T19:18:04.837Z,4.40
2018-10-06T19:20:32.884Z,3.40
2018-10-06T19:23:00.919Z,3.20
2018-10-06T19:25:28.970Z,2.70
2018-10-06T19:27:57.052Z,3.50
2018-10-06T19:30:25.085Z,3.80
2018-10-06T19:32:53.145Z,4.13
2018-10-06T19:35:21.206Z,3.87
2018-10-06T19:37:49.235Z,3.50
2018-10-06T19:40:18.302Z,3.60
2018-10-06T19:42:46.358Z,4.10
2018-10-06T19:45:14.396Z,3.50
2018-10-06T19:47:42.503Z,3.20
2018-10-06T19:50:10.513Z,4.40
2018-10-06T19:52:38.600Z,3.47
2018-10-06T19:55:06.640Z,4.17
2018-10-06T19:57:35.673Z,3.17
2018-10-06T20:00:04.284Z,3.40
2018-10-06T20:05:07.891Z,3.40
2018-10-06T20:07:36.425Z,3.50
2018-10-06T20:10:04.808Z,3.00
2018-10-06T20:12:32.949Z,3.33
2018-10-06T20:15:00.887Z,3.10
2018-10-06T20:17:30.040Z,3.60
2018-10-06T20:19:58.081Z,4.07
2018-10-06T20:22:26.089Z,3.37
2018-10-06T20:24:54.129Z,3.63
2018-10-06T20:27:22.130Z,3.50
2018-10-06T20:29:50.150Z,3.63
2018-10-06T20:32:18.156Z,3.43
2018-10-06T20:34:46.177Z,4.00
2018-10-06T20:37:14.190Z,3.73
2018-10-06T20:39:43.224Z,3.60
2018-10-06T20:42:11.229Z,4.37
2018-10-06T20:44:39.216Z,3.70
2018-10-06T20:47:08.258Z,3.67
2018-10-06T20:49:36.283Z,4.00
2018-10-06T20:52:04.318Z,3.80
2018-10-06T20:54:32.338Z,3.50
2018-10-06T20:57:00.373Z,3.97
2018-10-06T20:59:29.060Z,3.83
2018-10-06T21:01:57.811Z,3.77
2018-10-06T21:04:26.349Z,3.30
2018-10-06T21:06:54.681Z,3.50
2018-10-06T21:09:23.080Z,4.50
2018-10-06T21:11:51.125Z,3.43
2018-10-06T21:14:19.161Z,4.17
2018-10-06T21:16:47.202Z,3.60
2018-10-06T21:19:15.218Z,3.70
2018-10-06T21:21:43.222Z,3.60
2018-10-06T21:24:11.213Z,3.90
2018-10-06T21:26:39.224Z,3.27
2018-10-06T21:29:07.251Z,3.63
2018-10-06T21:31:36.247Z,3.57
2018-10-06T21:34:04.248Z,3.37
2018-10-06T21:36:32.253Z,4.03
2018-10-06T21:39:00.245Z,3.87
2018-10-06T21:41:28.274Z,4.00
2018-10-06T21:43:56.332Z,3.97
2018-10-06T21:46:24.345Z,3.27
2018-10-06T21:48:53.751Z,3.23
2018-10-06T21:51:21.752Z,5.03
2018-10-06T21:53:49.763Z,3.33
2018-10-06T21:56:17.774Z,4.20
2018-10-06T21:58:45.798Z,3.80
2018-10-06T22:01:14.548Z,3.43
2018-10-06T22:03:42.901Z,3.50
2018-10-06T22:06:10.933Z,3.50
2018-10-06T22:08:39.349Z,3.57
2018-10-06T22:11:07.365Z,3.73
2018-10-06T22:13:35.369Z,3.73
2018-10-06T22:16:03.427Z,3.60
2018-10-06T22:18:31.445Z,3.90
2018-10-06T22:20:59.469Z,3.83
2018-10-06T22:23:27.561Z,3.33
2018-10-06T22:25:55.609Z,3.73
2018-10-06T22:28:23.641Z,3.37
2018-10-06T22:30:51.641Z,3.63
2018-10-06T22:33:19.654Z,3.30
2018-10-06T22:35:47.673Z,3.10
2018-10-06T22:38:15.690Z,3.80
2018-10-06T22:40:43.714Z,4.30
2018-10-06T22:43:11.745Z,3.43
2018-10-06T22:45:39.817Z,3.10
2018-10-06T22:48:07.860Z,3.30
2018-10-06T22:50:35.906Z,3.53
2018-10-06T22:53:03.910Z,4.33
2018-10-06T22:55:31.922Z,4.10
2018-10-06T22:58:00.364Z,3.60
2018-10-06T23:00:28.500Z,3.90
2018-10-06T23:02:56.983Z,4.00
2018-10-06T23:05:25.640Z,3.90
2018-10-06T23:07:53.714Z,4.40
2018-10-06T23:10:21.924Z,3.93
2018-10-06T23:12:49.937Z,4.50
2018-10-06T23:15:17.964Z,4.10
2018-10-06T23:17:46.001Z,3.17
2018-10-06T23:20:14.030Z,4.10
2018-10-06T23:22:42.039Z,3.10
2018-10-06T23:25:11.023Z,4.03
2018-10-06T23:27:39.301Z,3.90
2018-10-06T23:30:08.322Z,3.30
2018-10-06T23:32:36.349Z,4.03
2018-10-06T23:35:04.369Z,3.60
2018-10-06T23:37:32.394Z,4.10
2018-10-06T23:40:00.421Z,4.30
2018-10-06T23:42:28.533Z,4.27
2018-10-06T23:44:56.530Z,3.13
2018-10-06T23:47:24.545Z,4.30
2018-10-06T23:49:52.542Z,3.77
2018-10-06T23:52:20.571Z,3.20
2018-10-06T23:54:49.055Z,3.47
2018-10-06T23:57:17.071Z,4.40
2018-10-06T23:59:45.084Z,4.00
